Foster, West Virginia
Current Conditions -  °F | °C
As of 6:54 AM on Monday 22 Dec 2014 (Local Time) from KCRW Reporting Station
Overcast Overcast  
Wind Chill: 29°   Ceiling: 4600
Heat Index: 33°   Visibility: 10mi
Dew Point: 29°   Wind: 5mph
Humidity: 85%   Direction: 100°E
Pressure: 30.06"   Gusts: NA
Location:  38.1°N, 81.78°W
Report Text: KCRW 221154Z 10004KT 10SM BKN046 OVC080 01/M02 A3006 RMK AO2 SLP185 T00061017 10022 21022 58007
Loading
Personal Weather Stations






























Interactive Weather Map New forecast layout! Learn more

10-Day Weather Forecast

Advertisements
Track Severe Weather on mobile